createdAt,value
2022-11-02T00:04:05.706Z,13.95
2022-11-02T00:09:04.054Z,13.90
2022-11-02T00:14:03.709Z,14.01
2022-11-02T00:19:01.009Z,13.98
2022-11-02T00:24:01.784Z,14.01
2022-11-02T00:29:27.843Z,13.94
2022-11-02T00:34:28.656Z,13.92
2022-11-02T00:39:38.135Z,13.95
2022-11-02T00:44:43.429Z,13.88
2022-11-02T00:50:09.109Z,13.74
2022-11-02T00:55:11.184Z,13.57
2022-11-02T01:00:15.752Z,13.40
2022-11-02T01:05:16.955Z,13.43
2022-11-02T01:10:20.218Z,13.31
2022-11-02T01:15:21.491Z,13.18
2022-11-02T01:20:23.917Z,13.15
2022-11-02T01:25:25.434Z,13.03
2022-11-02T01:30:29.104Z,12.97
2022-11-02T01:35:27.851Z,12.79
2022-11-02T01:40:25.294Z,12.72
2022-11-02T01:45:27.457Z,12.78
2022-11-02T01:50:26.533Z,12.64
2022-11-02T01:55:27.065Z,12.48
2022-11-02T02:00:26.628Z,12.27
2022-11-02T02:05:25.256Z,12.24
2022-11-02T02:10:54.472Z,12.18
2022-11-02T02:15:57.372Z,12.12
2022-11-02T02:21:19.038Z,12.10
2022-11-02T02:26:29.196Z,12.22
2022-11-02T02:31:48.471Z,12.18
2022-11-02T02:37:04.483Z,12.31
2022-11-02T02:42:24.986Z,12.28
2022-11-02T02:47:24.275Z,12.24
2022-11-02T02:52:22.527Z,12.07
2022-11-02T02:57:31.707Z,11.90
2022-11-02T03:02:34.271Z,12.24
2022-11-02T03:07:35.900Z,12.22
2022-11-02T03:12:47.007Z,12.21
2022-11-02T03:18:15.640Z,12.12
2022-11-02T03:23:24.965Z,12.04
2022-11-02T03:28:51.591Z,12.18
2022-11-02T03:33:58.291Z,12.35
2022-11-02T03:38:59.720Z,12.20
2022-11-02T03:44:00.185Z,11.93
2022-11-02T03:49:05.958Z,12.00
2022-11-02T03:54:15.139Z,11.81
2022-11-02T03:59:33.626Z,11.79
2022-11-02T04:04:46.212Z,11.65
2022-11-02T04:09:47.474Z,11.61
2022-11-02T04:20:04.555Z,11.62
2022-11-02T04:25:19.825Z,11.49
2022-11-02T04:30:32.571Z,11.66
2022-11-02T04:35:46.156Z,11.69
2022-11-02T04:40:49.472Z,11.67
2022-11-02T04:45:55.139Z,11.85
2022-11-02T04:51:03.598Z,12.05
2022-11-02T04:56:09.635Z,12.02
2022-11-02T05:07:33.958Z,12.05
2022-11-02T05:12:43.531Z,12.00
2022-11-02T05:17:43.340Z,11.89
2022-11-02T05:22:48.530Z,12.17
2022-11-02T05:27:53.800Z,12.05
2022-11-02T05:32:55.372Z,12.00
2022-11-02T05:37:58.162Z,11.98
2022-11-02T05:43:06.768Z,11.89
2022-11-02T05:48:19.350Z,12.04
2022-11-02T05:53:23.747Z,12.14
2022-11-02T05:58:55.966Z,12.04
2022-11-02T06:04:07.166Z,12.06
2022-11-02T06:09:22.732Z,11.87
2022-11-02T06:14:31.906Z,11.89
2022-11-02T06:19:43.721Z,12.15
2022-11-02T06:24:50.702Z,12.39
2022-11-02T06:29:57.031Z,12.69
2022-11-02T06:35:10.214Z,12.95
2022-11-02T06:40:32.773Z,13.27
2022-11-02T06:45:42.183Z,13.52
2022-11-02T06:50:54.657Z,13.75
2022-11-02T06:56:08.352Z,13.98
2022-11-02T07:01:13.826Z,14.20
2022-11-02T07:12:49.277Z,14.34
2022-11-02T07:18:09.798Z,14.54
2022-11-02T07:23:12.317Z,14.71
2022-11-02T07:28:27.368Z,15.01
2022-11-02T07:38:57.188Z,15.43
2022-11-02T07:43:57.813Z,15.57
2022-11-02T07:48:59.967Z,15.72
2022-11-02T07:54:18.340Z,15.89
2022-11-02T07:59:21.081Z,16.01
2022-11-02T08:04:29.070Z,16.15
2022-11-02T08:09:34.252Z,16.27
2022-11-02T08:15:03.496Z,16.47
2022-11-02T08:20:08.196Z,16.69
2022-11-02T08:30:18.912Z,17.08
2022-11-02T08:35:17.885Z,17.21
2022-11-02T08:40:19.024Z,17.39
2022-11-02T08:45:32.342Z,17.51
2022-11-02T08:50:55.114Z,17.60
2022-11-02T08:56:36.727Z,17.79
2022-11-02T09:02:02.205Z,17.89
2022-11-02T09:07:16.953Z,18.01
2022-11-02T09:12:25.562Z,18.15
2022-11-02T09:17:44.026Z,18.27
2022-11-02T09:23:09.573Z,18.43
2022-11-02T09:28:14.634Z,18.58
2022-11-02T09:33:22.901Z,18.69
2022-11-02T09:44:51.037Z,19.12
2022-11-02T09:49:56.003Z,19.39
2022-11-02T09:54:59.860Z,19.51
2022-11-02T10:00:23.117Z,19.68
2022-11-02T10:05:48.519Z,19.83
2022-11-02T10:11:20.415Z,20.03
2022-11-02T10:16:33.505Z,20.19
2022-11-02T10:21:41.652Z,20.37
2022-11-02T10:26:46.466Z,20.55
2022-11-02T10:31:54.787Z,20.80
2022-11-02T10:36:58.662Z,20.95
2022-11-02T10:47:45.947Z,21.22
2022-11-02T10:52:47.444Z,21.34
2022-11-02T10:57:51.959Z,21.52
2022-11-02T11:03:32.240Z,21.65
2022-11-02T11:08:40.605Z,21.85
2022-11-02T11:25:05.766Z,22.21
2022-11-02T11:30:12.764Z,22.42
2022-11-02T11:35:17.821Z,22.61
2022-11-02T11:40:47.391Z,22.73
2022-11-02T11:46:22.743Z,22.88
2022-11-02T11:51:40.407Z,22.97
2022-11-02T11:56:50.600Z,23.08
2022-11-02T12:01:59.040Z,23.19
2022-11-02T12:07:26.229Z,23.24
2022-11-02T12:12:36.452Z,23.32
2022-11-02T12:17:54.123Z,23.53
2022-11-02T12:23:14.053Z,23.63
2022-11-02T12:28:29.232Z,23.74
2022-11-02T12:33:35.194Z,23.78
2022-11-02T12:38:37.264Z,23.87
2022-11-02T12:43:41.391Z,23.94
2022-11-02T12:48:55.128Z,24.03
2022-11-02T12:54:00.786Z,24.04
2022-11-02T12:59:18.451Z,24.02
2022-11-02T13:04:40.229Z,24.09
2022-11-02T13:10:02.863Z,24.11
2022-11-02T13:15:01.792Z,24.07
2022-11-02T13:20:14.377Z,24.02
2022-11-02T13:25:15.944Z,24.04
2022-11-02T13:30:18.167Z,24.07
2022-11-02T13:35:36.147Z,24.06
2022-11-02T13:40:47.347Z,24.10
2022-11-02T13:46:04.059Z,24.10
2022-11-02T13:51:08.322Z,24.20
2022-11-02T13:56:13.649Z,24.22
2022-11-02T14:01:13.549Z,24.31
2022-11-02T14:06:16.312Z,24.40
2022-11-02T14:11:16.732Z,24.59
2022-11-02T14:16:38.470Z,24.68
2022-11-02T14:21:44.356Z,24.63
2022-11-02T14:27:00.969Z,24.37
2022-11-02T14:32:00.081Z,24.20
2022-11-02T14:37:30.154Z,24.06
2022-11-02T14:42:47.430Z,23.91
2022-11-02T14:47:48.086Z,23.68
2022-11-02T14:53:00.393Z,23.52
2022-11-02T14:58:06.529Z,23.48
2022-11-02T15:03:14.139Z,23.33
2022-11-02T15:08:20.779Z,23.15
2022-11-02T15:13:26.011Z,22.96
2022-11-02T15:18:32.313Z,22.65
2022-11-02T15:23:49.042Z,22.49
2022-11-02T15:28:59.385Z,22.48
2022-11-02T15:33:58.867Z,22.38
2022-11-02T15:38:59.680Z,22.25
2022-11-02T15:44:17.970Z,22.21
2022-11-02T15:49:41.462Z,22.03
2022-11-02T15:55:01.923Z,21.93
2022-11-02T16:00:02.720Z,21.79
2022-11-02T16:05:06.677Z,21.73
2022-11-02T16:10:36.950Z,21.68
2022-11-02T16:15:36.316Z,21.54
2022-11-02T16:20:40.015Z,21.47
2022-11-02T16:25:50.140Z,21.27
2022-11-02T16:31:12.504Z,21.08
2022-11-02T16:36:33.137Z,20.90
2022-11-02T16:41:34.643Z,20.75
2022-11-02T16:46:47.787Z,20.63
2022-11-02T16:52:05.646Z,20.52
2022-11-02T16:57:11.248Z,20.66
2022-11-02T17:02:13.278Z,20.62
2022-11-02T17:07:38.003Z,20.41
2022-11-02T17:12:42.991Z,20.37
2022-11-02T17:17:42.703Z,20.33
2022-11-02T17:22:52.821Z,20.24
2022-11-02T17:27:55.388Z,20.12
2022-11-02T17:32:56.796Z,20.05
2022-11-02T17:37:57.718Z,20.01
2022-11-02T17:42:59.234Z,19.87
2022-11-02T17:48:02.272Z,19.85
2022-11-02T17:53:12.620Z,19.75
2022-11-02T17:58:10.952Z,19.58
2022-11-02T18:03:20.540Z,19.57
2022-11-02T18:08:19.013Z,19.42
2022-11-02T18:13:22.104Z,19.33
2022-11-02T18:18:28.794Z,19.25
2022-11-02T18:23:42.455Z,19.27
2022-11-02T18:28:45.122Z,19.22
2022-11-02T18:33:43.618Z,19.19
2022-11-02T18:38:44.522Z,19.19
2022-11-02T18:43:45.358Z,19.25
2022-11-02T18:48:46.868Z,19.19
2022-11-02T18:53:47.794Z,19.18
2022-11-02T18:58:49.297Z,19.09
2022-11-02T19:03:55.064Z,19.06
2022-11-02T19:09:21.468Z,19.00
2022-11-02T19:14:24.253Z,18.89
2022-11-02T19:19:24.593Z,18.78
2022-11-02T19:24:23.500Z,18.77
2022-11-02T19:29:23.517Z,18.71
2022-11-02T19:34:23.997Z,18.71
2022-11-02T19:39:22.885Z,18.71
2022-11-02T19:44:26.150Z,18.70
2022-11-02T19:49:35.499Z,18.48
2022-11-02T19:54:38.823Z,18.43
2022-11-02T19:59:46.652Z,18.46
2022-11-02T20:04:46.215Z,18.43
2022-11-02T20:09:44.797Z,18.45
2022-11-02T20:14:52.947Z,18.44
2022-11-02T20:19:57.123Z,18.34
2022-11-02T20:24:58.295Z,18.30
2022-11-02T20:30:09.686Z,18.33
2022-11-02T20:35:13.737Z,18.39
2022-11-02T20:40:18.201Z,18.35
2022-11-02T20:45:27.409Z,18.32
2022-11-02T20:50:29.941Z,18.32
2022-11-02T20:56:01.993Z,18.27
2022-11-02T21:01:07.051Z,18.12
2022-11-02T21:06:20.663Z,18.03
2022-11-02T21:11:45.170Z,17.94
2022-11-02T21:16:53.516Z,17.86
2022-11-02T21:27:55.764Z,18.02
2022-11-02T21:33:01.172Z,17.66
2022-11-02T21:38:06.876Z,17.76
2022-11-02T21:43:13.176Z,17.91
2022-11-02T21:48:14.436Z,17.85
2022-11-02T21:53:12.149Z,17.90
2022-11-02T21:58:14.476Z,17.87
2022-11-02T22:03:14.600Z,17.81
2022-11-02T22:08:35.259Z,17.72
2022-11-02T22:13:34.371Z,17.69
2022-11-02T22:18:38.546Z,17.61
2022-11-02T22:23:38.883Z,17.36
2022-11-02T22:28:39.742Z,16.83
2022-11-02T22:33:40.488Z,16.52
2022-11-02T22:38:59.059Z,16.75
2022-11-02T22:44:11.335Z,16.78
2022-11-02T22:49:11.951Z,16.80
2022-11-02T22:54:18.382Z,16.35
2022-11-02T22:59:22.341Z,16.14
2022-11-02T23:04:20.606Z,16.13
2022-11-02T23:09:27.753Z,16.19
2022-11-02T23:14:29.934Z,15.99
2022-11-02T23:19:39.891Z,15.94
2022-11-02T23:25:02.468Z,16.06
2022-11-02T23:30:19.599Z,16.02
2022-11-02T23:35:36.193Z,16.18
2022-11-02T23:40:37.724Z,16.13
2022-11-02T23:45:35.338Z,16.28
2022-11-02T23:50:51.593Z,16.36
2022-11-02T23:56:08.167Z,16.35
